createdAt,value
2024-02-05T00:01:27.515Z,3.84
2024-02-05T00:06:30.279Z,3.81
2024-02-05T00:11:32.985Z,3.80
2024-02-05T00:16:35.600Z,3.87
2024-02-05T00:21:38.257Z,3.93
2024-02-05T00:26:40.923Z,3.99
2024-02-05T00:31:43.679Z,4.02
2024-02-05T00:36:46.332Z,4.13
2024-02-05T00:41:49.116Z,4.10
2024-02-05T00:46:51.760Z,4.15
2024-02-05T00:51:54.494Z,4.13
2024-02-05T00:56:57.115Z,4.02
2024-02-05T01:01:59.759Z,3.92
2024-02-05T01:07:02.743Z,3.91
2024-02-05T01:12:06.602Z,3.91
2024-02-05T01:17:10.264Z,3.89
2024-02-05T01:22:13.052Z,4.07
2024-02-05T01:27:15.916Z,3.89
2024-02-05T01:32:18.604Z,3.90
2024-02-05T01:37:21.408Z,3.81
2024-02-05T01:42:26.182Z,3.68
2024-02-05T01:47:28.921Z,3.68
2024-02-05T01:52:33.299Z,3.63
2024-02-05T01:57:36.532Z,3.56
2024-02-05T02:02:43.994Z,3.55
2024-02-05T02:07:47.617Z,3.52
2024-02-05T02:12:50.433Z,3.36
2024-02-05T02:17:57.749Z,3.32
2024-02-05T02:23:07.599Z,3.30
2024-02-05T02:28:10.525Z,3.21
2024-02-05T02:33:23.329Z,3.14
2024-02-05T02:38:44.885Z,3.19
2024-02-05T02:44:00.443Z,3.26
2024-02-05T02:49:03.548Z,3.37
2024-02-05T02:54:06.268Z,3.57
2024-02-05T02:59:11.007Z,3.63
2024-02-05T03:04:13.652Z,3.62
2024-02-05T03:09:16.335Z,3.75
2024-02-05T03:14:19.247Z,3.71
2024-02-05T03:19:22.241Z,3.67
2024-02-05T03:24:25.120Z,3.81
2024-02-05T03:29:27.759Z,3.83
2024-02-05T03:34:30.552Z,3.79
2024-02-05T03:39:33.401Z,3.82
2024-02-05T03:44:36.089Z,4.00
2024-02-05T03:49:38.775Z,4.08
2024-02-05T03:54:43.116Z,3.96
2024-02-05T03:59:45.814Z,3.84
2024-02-05T04:04:48.460Z,3.63
2024-02-05T04:09:51.394Z,3.59
2024-02-05T04:14:54.272Z,3.47
2024-02-05T04:19:56.922Z,3.47
2024-02-05T04:24:59.634Z,3.41
2024-02-05T04:30:03.937Z,3.44
2024-02-05T04:35:09.129Z,3.45
2024-02-05T04:40:12.752Z,3.38
2024-02-05T04:45:15.999Z,3.08
2024-02-05T04:50:19.212Z,3.28
2024-02-05T04:55:22.647Z,3.12
2024-02-05T05:00:25.973Z,3.13
2024-02-05T05:05:28.988Z,3.10
2024-02-05T05:10:31.930Z,3.14
2024-02-05T05:15:37.620Z,3.36
2024-02-05T05:20:44.125Z,3.45
2024-02-05T05:25:46.990Z,3.59
2024-02-05T05:30:49.655Z,3.71
2024-02-05T05:35:52.548Z,3.63
2024-02-05T05:40:55.521Z,3.83
2024-02-05T05:45:59.100Z,3.70
2024-02-05T05:51:01.865Z,3.73
2024-02-05T05:56:04.767Z,3.86
2024-02-05T06:01:07.832Z,4.14
2024-02-05T06:06:10.682Z,4.16
2024-02-05T06:11:13.720Z,4.60
2024-02-05T06:16:17.862Z,4.73
2024-02-05T06:21:20.602Z,4.96
2024-02-05T06:26:23.489Z,5.01
2024-02-05T06:31:26.480Z,5.46
2024-02-05T06:36:29.244Z,5.81
2024-02-05T06:41:32.792Z,6.01
2024-02-05T06:46:35.384Z,6.22
2024-02-05T06:51:38.188Z,6.30
2024-02-05T06:56:41.080Z,6.67
2024-02-05T07:01:43.779Z,6.99
2024-02-05T07:06:46.939Z,7.11
2024-02-05T07:11:49.943Z,6.97
2024-02-05T07:16:52.757Z,7.03
2024-02-05T07:21:56.547Z,7.18
2024-02-05T07:26:59.931Z,7.03
2024-02-05T07:32:02.574Z,7.00
2024-02-05T07:37:05.654Z,7.10
2024-02-05T07:42:09.142Z,7.48
2024-02-05T07:47:11.801Z,7.65
2024-02-05T07:52:16.123Z,7.92
2024-02-05T07:57:20.401Z,8.06
2024-02-05T08:02:24.391Z,8.42
2024-02-05T08:07:27.264Z,8.70
2024-02-05T08:12:30.043Z,8.66
2024-02-05T08:17:33.158Z,8.66
2024-02-05T08:22:35.963Z,9.00
2024-02-05T08:27:38.685Z,9.33
2024-02-05T08:32:41.828Z,9.23
2024-02-05T08:37:44.650Z,9.08
2024-02-05T08:42:47.443Z,8.89
2024-02-05T08:47:50.202Z,8.43
2024-02-05T08:52:52.794Z,8.28
2024-02-05T08:57:55.595Z,7.80
2024-02-05T09:02:58.328Z,7.53
2024-02-05T09:08:01.447Z,7.49
2024-02-05T09:13:04.339Z,7.15
2024-02-05T09:18:07.816Z,7.14
2024-02-05T09:23:10.776Z,7.27
2024-02-05T09:28:13.671Z,7.18
2024-02-05T09:33:16.500Z,7.06
2024-02-05T09:38:19.338Z,7.04
2024-02-05T09:43:24.027Z,7.20
2024-02-05T09:48:33.685Z,7.11
2024-02-05T09:53:43.306Z,6.91
2024-02-05T09:58:46.729Z,6.92
2024-02-05T10:03:50.706Z,6.67
2024-02-05T10:09:02.922Z,6.69
2024-02-05T10:14:06.532Z,6.64
2024-02-05T10:19:09.298Z,6.97
2024-02-05T10:24:16.719Z,7.13
2024-02-05T10:29:23.177Z,7.36
2024-02-05T10:34:26.816Z,7.63
2024-02-05T10:39:29.733Z,7.73
2024-02-05T10:44:38.247Z,9.00
2024-02-05T10:49:45.412Z,9.17
2024-02-05T10:54:49.895Z,8.93
2024-02-05T10:59:52.915Z,8.23
2024-02-05T11:04:57.858Z,8.03
2024-02-05T11:10:05.751Z,7.57
2024-02-05T11:15:11.794Z,7.25
2024-02-05T11:20:15.313Z,7.25
2024-02-05T11:25:19.147Z,7.10
2024-02-05T11:30:21.908Z,7.06
2024-02-05T11:35:30.670Z,7.31
2024-02-05T11:40:34.552Z,7.26
2024-02-05T11:45:37.987Z,6.99
2024-02-05T11:50:42.234Z,6.89
2024-02-05T11:55:45.650Z,6.60
2024-02-05T12:00:48.517Z,6.60
2024-02-05T12:05:51.598Z,6.37
2024-02-05T12:10:54.679Z,6.41
2024-02-05T12:15:57.560Z,6.46
2024-02-05T12:21:00.836Z,6.47
2024-02-05T12:26:04.233Z,6.51
2024-02-05T12:31:07.206Z,6.45
2024-02-05T12:36:11.397Z,6.29
2024-02-05T12:41:14.514Z,6.36
2024-02-05T12:46:18.211Z,6.23
2024-02-05T12:51:22.690Z,6.26
2024-02-05T12:56:25.624Z,6.22
2024-02-05T13:01:28.732Z,6.15
2024-02-05T13:06:31.756Z,6.08
2024-02-05T13:11:35.222Z,6.05
2024-02-05T13:16:37.949Z,5.75
2024-02-05T13:21:40.721Z,5.72
2024-02-05T13:26:49.069Z,5.46
2024-02-05T13:31:52.698Z,5.24
2024-02-05T13:36:56.345Z,5.31
2024-02-05T13:42:03.818Z,5.12
2024-02-05T13:47:07.247Z,5.00
2024-02-05T13:52:10.309Z,5.04
2024-02-05T13:57:13.499Z,4.99
2024-02-05T14:02:16.867Z,5.14
2024-02-05T14:07:21.032Z,5.13
2024-02-05T14:12:24.204Z,4.89
2024-02-05T14:17:27.375Z,4.87
2024-02-05T14:22:30.795Z,4.93
2024-02-05T14:27:33.769Z,4.76
2024-02-05T14:32:39.058Z,4.73
2024-02-05T14:37:41.683Z,4.56
2024-02-05T14:42:44.405Z,4.40
2024-02-05T14:47:47.368Z,4.23
2024-02-05T14:52:50.062Z,4.10
2024-02-05T14:57:55.479Z,4.01
2024-02-05T15:02:59.655Z,3.93
2024-02-05T15:08:02.508Z,3.97
2024-02-05T15:13:05.535Z,3.99
2024-02-05T15:18:11.916Z,4.06
2024-02-05T15:23:14.929Z,4.06
2024-02-05T15:28:17.806Z,4.08
2024-02-05T15:33:20.765Z,4.16
2024-02-05T15:38:23.677Z,4.22
2024-02-05T15:43:27.387Z,4.20
2024-02-05T15:48:30.344Z,4.20
2024-02-05T15:53:33.156Z,4.09
2024-02-05T15:58:36.261Z,4.07
2024-02-05T16:03:41.521Z,4.29
2024-02-05T16:08:44.399Z,4.16
2024-02-05T16:13:47.808Z,4.20
2024-02-05T16:18:54.566Z,4.29
2024-02-05T16:24:02.677Z,4.27
2024-02-05T16:29:05.679Z,4.30
2024-02-05T16:34:08.926Z,4.33
2024-02-05T16:39:12.077Z,4.24
2024-02-05T16:44:15.550Z,4.24
2024-02-05T16:54:23.292Z,4.43
2024-02-05T16:59:26.248Z,4.48
2024-02-05T17:04:29.288Z,4.41
2024-02-05T17:09:32.442Z,4.46
2024-02-05T17:14:35.441Z,4.37
2024-02-05T17:19:39.930Z,4.32
2024-02-05T17:24:46.189Z,4.44
2024-02-05T17:29:49.074Z,4.52
2024-02-05T17:34:52.291Z,4.51
2024-02-05T17:39:55.239Z,4.47
2024-02-05T17:44:58.259Z,4.56
2024-02-05T17:50:01.412Z,4.51
2024-02-05T17:55:05.080Z,4.44
2024-02-05T18:00:08.573Z,4.58
2024-02-05T18:05:12.110Z,4.60
2024-02-05T18:10:15.392Z,4.43
2024-02-05T18:15:18.267Z,4.56
2024-02-05T18:20:21.730Z,4.38
2024-02-05T18:25:24.964Z,4.50
2024-02-05T18:30:30.486Z,4.44
2024-02-05T18:35:33.465Z,4.58
2024-02-05T18:40:36.450Z,4.32
2024-02-05T18:45:39.909Z,4.51
2024-02-05T18:50:43.004Z,4.37
2024-02-05T18:55:47.459Z,4.35
2024-02-05T19:00:50.723Z,4.26
2024-02-05T19:05:53.726Z,4.17
2024-02-05T19:10:57.069Z,4.00
2024-02-05T19:16:00.235Z,3.88
2024-02-05T19:21:03.330Z,3.90
2024-02-05T19:26:06.351Z,3.80
2024-02-05T19:31:10.042Z,3.81
2024-02-05T19:36:13.602Z,3.83
2024-02-05T19:41:18.039Z,3.74
2024-02-05T19:46:20.986Z,3.61
2024-02-05T19:51:24.780Z,3.50
2024-02-05T19:56:28.738Z,3.25
2024-02-05T20:01:31.846Z,3.17
2024-02-05T20:06:35.617Z,3.02
2024-02-05T20:11:38.604Z,2.66
2024-02-05T20:16:41.652Z,2.66
2024-02-05T20:21:44.597Z,2.35
2024-02-05T20:26:47.740Z,2.45
2024-02-05T20:31:50.688Z,2.57
2024-02-05T20:36:53.955Z,2.71
2024-02-05T20:41:56.847Z,2.84
2024-02-05T20:46:59.713Z,2.97
2024-02-05T20:52:03.851Z,2.97
2024-02-05T20:57:06.926Z,3.08
2024-02-05T21:02:10.745Z,3.16
2024-02-05T21:07:14.050Z,3.06
2024-02-05T21:12:16.964Z,2.98
2024-02-05T21:17:19.884Z,3.28
2024-02-05T21:22:22.858Z,3.31
2024-02-05T21:27:25.870Z,3.21
2024-02-05T21:32:28.959Z,3.10
2024-02-05T21:37:32.079Z,3.12
2024-02-05T21:42:35.244Z,3.35
2024-02-05T21:47:38.197Z,3.38
2024-02-05T21:52:41.343Z,3.34
2024-02-05T21:57:45.952Z,3.43
2024-02-05T22:02:48.958Z,3.29
2024-02-05T22:07:51.952Z,3.34
2024-02-05T22:12:55.128Z,3.43
2024-02-05T22:17:58.198Z,3.43
2024-02-05T22:23:01.064Z,3.61
2024-02-05T22:28:04.267Z,3.58
2024-02-05T22:33:07.418Z,3.55
2024-02-05T22:38:10.372Z,3.50
2024-02-05T22:43:15.946Z,3.59
2024-02-05T22:48:20.638Z,3.60
2024-02-05T22:53:23.522Z,3.55
2024-02-05T22:58:26.701Z,3.57
2024-02-05T23:03:29.794Z,3.61
2024-02-05T23:08:32.758Z,3.63
2024-02-05T23:13:35.763Z,3.56
2024-02-05T23:18:38.691Z,3.51
2024-02-05T23:23:41.622Z,3.54
2024-02-05T23:28:44.370Z,3.60
2024-02-05T23:33:48.451Z,3.61
2024-02-05T23:38:51.237Z,3.45
2024-02-05T23:43:54.157Z,3.23
2024-02-05T23:48:59.878Z,3.36
2024-02-05T23:54:04.361Z,3.27
2024-02-05T23:59:07.396Z,3.21
